Time;durP1;ratioP1;P1;durP2;ratioP2;P2;SDS_P1;SDS_P2;PMS_P1;PMS_P2;Temp;Humidity;BMP_temperature;BMP_pressure;BME280_temperature;BME280_humidity;BME280_pressure;Samples;Min_cycle;Max_cycle;Signal;HPM_P1;HPM_P2
2022/01/24 00:01:51;;;;;;;42.00;22.65;;;;;;;1.62;77.06;102083.65;2220699;79;27839;-60
2022/01/24 00:04:53;;;;;;;31.75;16.10;;;;;;;1.62;77.21;102094.22;2236879;77;29319;-63
2022/01/24 00:07:55;;;;;;;33.83;17.70;;;;;;;1.62;77.10;102096.86;2223089;78;31577;-61
2022/01/24 00:11:03;;;;;;;60.80;34.18;;;;;;;1.60;77.18;102091.98;2251507;77;34246;-60
2022/01/24 00:26:57;;;;;;;52.27;29.42;;;;;;;1.67;77.38;102077.57;2293703;77;27855;-61
2022/01/24 00:29:58;;;;;;;60.50;33.90;;;;;;;1.69;77.33;102075.39;2294607;77;29487;-60
2022/01/24 00:33:00;;;;;;;68.52;37.95;;;;;;;1.71;77.39;102077.63;2265700;77;27702;-61
2022/01/24 00:36:02;;;;;;;55.85;26.37;;;;;;;1.74;77.35;102072.40;2262601;78;29138;-62
2022/01/24 00:39:05;;;;;;;54.15;29.32;;;;;;;1.76;77.36;102079.92;2263011;78;31778;-62
2022/01/24 00:42:30;;;;;;;49.85;25.00;;;;;;;1.76;77.32;102074.64;2276738;77;33041;-62
2022/01/24 00:45:51;;;;;;;36.03;19.52;;;;;;;1.77;77.28;102077.73;2284499;77;29537;-60
2022/01/24 00:49:09;;;;;;;43.55;24.67;;;;;;;1.76;77.13;102074.19;2284597;77;27752;-60
2022/01/24 00:55:05;;;;;;;30.30;16.87;;;;;;;1.76;77.18;102076.83;2294408;77;31413;-68
2022/01/24 00:58:07;;;;;;;41.33;22.05;;;;;;;1.75;77.17;102077.69;2294621;77;32981;-61
2022/01/24 01:01:09;;;;;;;47.43;24.60;;;;;;;1.75;77.17;102079.02;2294970;77;30574;-59
2022/01/24 01:04:11;;;;;;;49.08;23.12;;;;;;;1.75;77.02;102079.02;2276342;77;27662;-59
2022/01/24 01:07:17;;;;;;;60.88;29.35;;;;;;;1.74;77.08;102081.20;2262350;78;29908;-59
2022/01/24 01:20:24;;;;;;;68.57;35.78;;;;;;;1.81;77.19;102067.67;2260793;78;27696;-59
2022/01/24 01:23:22;;;;;;;77.47;36.65;;;;;;;1.84;77.22;102072.11;2278689;77;30019;-59
2022/01/24 01:29:34;;;;;;;;;;;;;;;1.87;77.25;102070.84;2226403;77;34681;-59
2022/01/24 01:39:29;;;;;;;29.82;16.25;;;;;;;1.87;77.16;102073.03;2221940;79;29891;-60
2022/01/24 01:52:25;;;;;;;38.55;20.60;;;;;;;1.85;77.01;102077.41;2208145;80;27694;-60
2022/01/24 01:55:39;;;;;;;36.00;19.87;;;;;;;1.87;77.07;102078.32;2221290;80;29081;-61
2022/01/24 01:58:41;;;;;;;36.93;18.82;;;;;;;1.89;77.05;102084.52;2257736;77;32159;-60
2022/01/24 02:01:43;;;;;;;36.60;19.17;;;;;;;1.88;76.97;102088.03;2226223;80;34204;-59
2022/01/24 02:04:45;;;;;;;52.90;29.25;;;;;;;1.88;76.98;102091.99;2226636;79;29871;-60
2022/01/24 02:07:50;;;;;;;37.95;20.45;;;;;;;1.86;76.82;102087.11;2226703;79;27737;-59
2022/01/24 02:10:51;;;;;;;57.30;28.27;;;;;;;1.85;76.83;102078.73;2225133;79;28653;-60
2022/01/24 02:13:53;;;;;;;42.15;20.82;;;;;;;1.81;76.69;102081.77;2222236;79;30927;-60
2022/01/24 02:17:02;;;;;;;41.50;21.12;;;;;;;1.81;76.88;102075.16;2221667;79;33355;-59
2022/01/24 02:26:28;;;;;;;51.48;25.12;;;;;;;1.88;77.08;102070.85;2195715;81;28649;-60
2022/01/24 02:29:53;;;;;;;44.73;21.27;;;;;;;1.89;77.18;102063.38;2222168;80;31366;-59
2022/01/24 02:32:50;;;;;;;36.53;18.75;;;;;;;1.92;77.15;102067.81;2227153;79;34320;-60
2022/01/24 02:35:52;;;;;;;37.13;17.70;;;;;;;1.93;77.11;102069.17;2248762;79;30688;-59
2022/01/24 02:48:40;;;;;;;50.98;25.62;;;;;;;1.93;77.01;102073.14;2234079;79;33359;-61
2022/01/24 02:51:48;;;;;;;97.90;47.17;;;;;;;1.91;76.96;102068.27;2245574;78;30434;-60
2022/01/24 02:54:50;;;;;;;55.15;28.27;;;;;;;1.92;77.12;102073.09;2245730;79;27676;-60
2022/01/24 02:57:52;;;;;;;81.90;41.13;;;;;;;1.92;76.95;102070.04;2245358;79;29848;-61
2022/01/24 03:00:56;;;;;;;86.82;44.98;;;;;;;1.90;76.83;102075.73;2245252;79;30798;-61
2022/01/24 03:03:58;;;;;;;40.50;21.77;;;;;;;1.90;76.97;102070.89;2246199;79;33806;-60
2022/01/24 03:07:00;;;;;;;74.58;41.68;;;;;;;1.87;76.86;102078.77;2245667;78;30173;-60
2022/01/24 03:10:12;;;;;;;69.00;38.60;;;;;;;1.82;76.84;102077.39;2251567;79;28192;-60
2022/01/24 03:13:18;;;;;;;53.80;31.17;;;;;;;1.78;76.74;102078.20;2211959;78;28622;-60
2022/01/24 03:16:13;;;;;;;58.98;34.05;;;;;;;1.75;76.78;102072.86;2205001;80;31002;-60
2022/01/24 03:19:16;;;;;;;57.78;27.40;;;;;;;1.69;76.83;102071.42;2230797;79;34182;-60
2022/01/24 03:22:17;;;;;;;56.35;27.32;;;;;;;1.67;76.89;102071.41;2253934;79;30248;-60
2022/01/24 03:25:19;;;;;;;55.60;30.32;;;;;;;1.65;76.96;102077.10;2253824;78;27651;-60
2022/01/24 03:28:22;;;;;;;58.90;31.93;;;;;;;1.62;76.95;102083.23;2253256;79;29025;-60
2022/01/24 03:31:23;;;;;;;52.38;30.17;;;;;;;1.58;76.94;102086.68;2238690;79;31601;-60
2022/01/24 03:34:25;;;;;;;57.58;32.28;;;;;;;1.57;76.92;102084.03;2189053;80;32932;-60
2022/01/24 03:37:27;;;;;;;56.35;28.40;;;;;;;1.53;76.95;102089.67;2227082;79;30162;-60
2022/01/24 03:40:30;;;;;;;48.50;28.00;;;;;;;1.54;77.04;102093.22;2198725;79;27685;-60
2022/01/24 03:43:31;;;;;;;59.93;31.15;;;;;;;1.55;77.00;102098.52;2262690;78;28831;-60
2022/01/24 03:46:48;;;;;;;56.30;31.73;;;;;;;1.56;76.99;102099.42;2262663;78;30925;-59
2022/01/24 03:49:48;;;;;;;60.60;36.08;;;;;;;1.52;76.96;102090.53;2269124;77;33432;-60
2022/01/24 03:52:50;;;;;;;55.30;27.75;;;;;;;1.52;76.80;102090.53;2237722;77;29789;-60
2022/01/24 03:55:51;;;;;;;53.73;27.65;;;;;;;1.48;76.79;102085.64;2221591;80;27668;-60
2022/01/24 03:58:53;;;;;;;53.98;26.68;;;;;;;1.46;76.78;102079.88;2222384;80;29274;-60
2022/01/24 04:01:55;;;;;;;63.33;29.55;;;;;;;1.47;77.02;102080.34;2222130;80;32251;-60
2022/01/24 04:04:57;;;;;;;55.80;29.05;;;;;;;1.49;76.93;102078.62;2250900;77;33311;-60
2022/01/24 04:07:59;;;;;;;59.23;29.10;;;;;;;1.47;76.81;102089.59;2294754;77;29708;-61
2022/01/24 04:11:01;;;;;;;62.35;31.87;;;;;;;1.45;76.69;102082.94;2294912;77;27563;-60
2022/01/24 04:17:20;;;;;;;62.88;29.87;;;;;;;1.43;76.39;102089.06;2165326;81;32539;-60
2022/01/24 04:23:35;;;;;;;70.85;33.13;;;;;;;1.34;76.62;102081.88;2143372;83;29166;-61
2022/01/24 04:26:38;;;;;;;64.90;32.85;;;;;;;1.33;76.60;102086.70;2144224;82;27750;-60
2022/01/24 04:29:41;;;;;;;70.10;33.60;;;;;;;1.30;76.63;102091.50;2164898;82;28885;-60
2022/01/24 04:32:42;;;;;;;71.82;36.68;;;;;;;1.29;76.54;102101.60;2165205;82;31878;-59
2022/01/24 04:35:44;;;;;;;69.75;33.95;;;;;;;1.31;76.77;102098.97;2164931;82;34454;-61
2022/01/24 04:38:46;;;;;;;81.32;33.98;;;;;;;1.29;76.56;102096.32;2148595;82;30376;-59
2022/01/24 04:41:51;;;;;;;68.28;34.08;;;;;;;1.30;76.65;102102.06;2143799;83;27658;-61
2022/01/24 04:45:11;;;;;;;70.65;33.10;;;;;;;1.35;76.79;102099.50;2143250;83;29264;-59
2022/01/24 04:51:33;;;;;;;66.70;34.63;;;;;;;1.36;76.61;102101.28;2143306;83;32735;-61
2022/01/24 04:57:32;;;;;;;66.57;30.77;;;;;;;1.39;76.64;102103.98;2227455;77;27637;-60
2022/01/24 05:00:33;;;;;;;67.92;31.90;;;;;;;1.41;76.67;102102.67;2262140;78;29610;-60
2022/01/24 05:03:35;;;;;;;65.75;32.33;;;;;;;1.45;76.72;102101.87;2262580;78;31047;-60
2022/01/24 05:06:37;;;;;;;61.50;30.37;;;;;;;1.47;76.63;102106.75;2275321;77;33556;-59
2022/01/24 05:09:49;;;;;;;63.87;30.80;;;;;;;1.48;76.52;102109.85;2294805;77;29116;-60
2022/01/24 05:25:45;;;;;;;50.73;25.20;;;;;;;1.45;76.45;102119.03;2288831;77;30629;-60
2022/01/24 05:28:47;;;;;;;48.28;22.35;;;;;;;1.46;76.45;102119.50;2294578;77;27658;-59
2022/01/24 05:31:49;;;;;;;49.42;23.35;;;;;;;1.45;76.36;102122.55;2295018;77;29019;-59
2022/01/24 05:34:51;;;;;;;45.30;22.15;;;;;;;1.46;76.55;102126.09;2294396;77;32354;-59
2022/01/24 05:37:54;;;;;;;39.00;20.88;;;;;;;1.46;76.46;102126.97;2294429;77;33711;-60
2022/01/24 05:40:57;;;;;;;37.08;19.05;;;;;;;1.45;76.41;102124.32;2286172;77;30435;-59
2022/01/24 05:43:59;;;;;;;35.58;19.45;;;;;;;1.41;76.14;102127.76;2286745;77;27714;-60
2022/01/24 05:47:01;;;;;;;33.53;17.50;;;;;;;1.38;76.30;102123.33;2286909;77;29680;-59
2022/01/24 05:50:04;;;;;;;23.10;13.45;;;;;;;1.36;76.20;102127.69;2284340;77;32115;-59
2022/01/24 05:53:06;;;;;;;26.35;13.95;;;;;;;1.30;76.11;102122.28;2294623;77;33745;-59
2022/01/24 05:56:07;;;;;;;30.35;14.35;;;;;;;1.27;76.21;102132.36;2294376;77;30676;-59
2022/01/24 05:59:09;;;;;;;27.17;13.68;;;;;;;1.25;76.32;102130.12;2294737;77;27619;-59
2022/01/24 06:02:11;;;;;;;25.08;13.93;;;;;;;1.25;76.29;102133.17;2293030;77;29070;-59
2022/01/24 06:05:13;;;;;;;30.60;15.93;;;;;;;1.25;76.46;102142.41;2262376;77;32231;-59
2022/01/24 06:08:14;;;;;;;32.95;15.78;;;;;;;1.27;76.41;102136.73;2259407;77;34260;-59
2022/01/24 06:11:17;;;;;;;30.00;16.37;;;;;;;1.28;76.55;102135.88;2292408;77;29754;-59
2022/01/24 06:14:19;;;;;;;31.62;16.35;;;;;;;1.30;76.54;102128.47;2294960;77;27678;-59
2022/01/24 06:17:21;;;;;;;29.02;16.90;;;;;;;1.32;76.45;102128.06;2261235;77;29843;-59
2022/01/24 06:20:24;;;;;;;29.60;15.80;;;;;;;1.29;76.27;102131.97;2261055;77;32362;-59
2022/01/24 06:23:26;;;;;;;26.10;13.32;;;;;;;1.29;76.29;102132.38;2250288;78;33743;-59
2022/01/24 06:26:28;;;;;;;29.55;14.25;;;;;;;1.27;76.09;102135.41;2222113;80;30645;-68
2022/01/24 06:29:29;;;;;;;25.62;14.18;;;;;;;1.23;76.08;102119.95;2222683;78;27718;-69
2022/01/24 06:32:31;;;;;;;28.92;14.65;;;;;;;1.19;76.12;102125.63;2235334;77;29046;-59
2022/01/24 06:35:33;;;;;;;32.78;15.95;;;;;;;1.16;75.98;102126.00;2267997;77;30458;-62
2022/01/24 06:38:35;;;;;;;30.62;16.37;;;;;;;1.15;76.26;102134.33;2223119;78;34162;-60
2022/01/24 06:41:37;;;;;;;32.78;16.35;;;;;;;1.15;76.27;102133.45;2255082;77;29875;-60
2022/01/24 06:44:39;;;;;;;33.83;17.73;;;;;;;1.17;76.33;102139.63;2235124;78;27637;-59
2022/01/24 06:47:41;;;;;;;37.63;19.23;;;;;;;1.15;76.00;102145.34;2196412;79;28843;-59
2022/01/24 06:50:44;;;;;;;42.67;20.62;;;;;;;1.17;76.41;102147.14;2212869;79;31099;-60
2022/01/24 06:53:47;;;;;;;29.12;17.70;;;;;;;1.21;76.22;102152.03;2284124;77;34143;-61
2022/01/24 06:56:49;;;;;;;35.08;19.02;;;;;;;1.24;76.40;102161.34;2201808;80;30362;-60
2022/01/24 06:59:51;;;;;;;36.73;18.20;;;;;;;1.28;76.27;102159.64;2219576;79;28116;-60
2022/01/24 07:02:53;;;;;;;35.98;18.92;;;;;;;1.28;76.12;102161.86;2214568;78;29942;-64
2022/01/24 07:05:55;;;;;;;33.05;17.45;;;;;;;1.32;76.12;102162.80;2196132;81;31081;-60
2022/01/24 07:08:57;;;;;;;34.65;18.02;;;;;;;1.33;76.08;102154.90;2195234;81;32797;-59
2022/01/24 07:11:59;;;;;;;39.35;20.00;;;;;;;1.39;76.12;102162.08;2224191;79;30609;-59
2022/01/24 07:15:07;;;;;;;38.73;19.45;;;;;;;1.43;76.16;102166.97;2263339;78;27596;-60
2022/01/24 07:21:07;;;;;;;36.50;19.62;;;;;;;1.49;76.26;102182.50;2235234;79;31425;-60
2022/01/24 07:24:08;;;;;;;36.95;18.70;;;;;;;1.56;76.22;102177.34;2284131;77;34124;-60
2022/01/24 07:27:10;;;;;;;34.67;19.30;;;;;;;1.59;76.18;102174.73;2263234;78;29733;-59
2022/01/24 07:30:12;;;;;;;36.45;19.27;;;;;;;1.63;76.20;102176.56;2223060;80;27679;-59
2022/01/24 07:33:15;;;;;;;39.05;19.55;;;;;;;1.67;76.11;102178.41;2241496;78;29102;-59
2022/01/24 07:36:17;;;;;;;41.80;20.30;;;;;;;1.70;76.18;102182.84;2189825;80;31033;-59
2022/01/24 07:39:19;;;;;;;37.65;20.72;;;;;;;1.71;75.89;102188.18;2143573;83;34549;-59
2022/01/24 07:42:39;;;;;;;40.40;19.62;;;;;;;1.67;75.68;102184.57;2202799;80;30460;-62
2022/01/24 07:45:31;;;;;;;41.05;21.52;;;;;;;1.71;75.73;102192.55;2247115;79;27647;-65
2022/01/24 07:48:32;;;;;;;39.08;21.97;;;;;;;1.70;75.65;102190.77;2249169;78;29872;-60
2022/01/24 07:51:35;;;;;;;44.77;23.45;;;;;;;1.70;75.67;102190.36;2249099;78;31385;-60
2022/01/24 07:54:37;;;;;;;43.70;22.45;;;;;;;1.73;75.74;102190.42;2249226;79;33783;-60
2022/01/24 07:57:39;;;;;;;45.05;22.75;;;;;;;1.76;75.65;102193.09;2251843;78;29675;-59
2022/01/24 08:00:41;;;;;;;38.00;21.77;;;;;;;1.73;75.60;102186.45;2254095;78;27980;-61
2022/01/24 08:03:43;;;;;;;42.38;22.48;;;;;;;1.77;75.70;102179.02;2253798;78;28573;-68
2022/01/24 08:06:47;;;;;;;41.95;22.42;;;;;;;1.79;75.71;102167.17;2253391;78;32261;-59
2022/01/24 08:09:49;;;;;;;43.75;22.95;;;;;;;1.80;75.46;102168.95;2250495;78;32995;-60
2022/01/24 08:12:51;;;;;;;43.95;22.93;;;;;;;1.82;75.48;102177.80;2225605;80;30486;-60
2022/01/24 08:15:53;;;;;;;37.70;22.40;;;;;;;1.81;75.34;102174.70;2245603;79;27616;-60
2022/01/24 08:18:57;;;;;;;46.30;24.30;;;;;;;1.85;75.59;102188.84;2224804;79;30073;-60
2022/01/24 08:22:05;;;;;;;42.17;22.52;;;;;;;1.90;75.70;102189.37;2248939;78;31243;-63
2022/01/24 08:25:07;;;;;;;48.00;22.98;;;;;;;1.97;75.66;102186.40;2248281;79;33009;-61
2022/01/24 08:28:10;;;;;;;39.63;20.32;;;;;;;2.03;75.67;102187.84;2225759;78;30189;-61
2022/01/24 08:31:13;;;;;;;36.90;21.45;;;;;;;2.06;75.37;102197.56;2206207;80;27696;-60
2022/01/24 08:34:15;;;;;;;39.05;20.75;;;;;;;2.10;75.49;102196.75;2207229;80;28800;-60
2022/01/24 08:37:17;;;;;;;39.42;20.32;;;;;;;2.17;75.45;102200.38;2222686;78;31103;-60
2022/01/24 08:40:25;;;;;;;39.35;18.67;;;;;;;2.24;75.46;102208.44;2246519;77;34264;-60
2022/01/24 08:46:50;;;;;;;40.08;19.80;;;;;;;2.36;75.37;102206.84;2156268;81;27716;-61
2022/01/24 08:49:56;;;;;;;29.57;15.63;;;;;;;2.43;75.45;102207.40;2107605;84;28671;-60
2022/01/24 08:53:03;;;;;;;36.20;18.67;;;;;;;2.52;75.41;102209.30;2107199;84;31041;-60
2022/01/24 08:56:07;;;;;;;36.05;19.98;;;;;;;2.61;75.24;102214.70;2107128;84;33168;-60
2022/01/24 08:59:09;;;;;;;37.75;19.57;;;;;;;2.69;75.16;102217.45;2152097;82;29398;-61
2022/01/24 09:02:11;;;;;;;36.90;18.80;;;;;;;2.76;75.11;102212.72;2165361;82;27687;-60
2022/01/24 09:05:13;;;;;;;37.13;18.77;;;;;;;2.82;74.71;102213.23;2165001;82;29049;-60
2022/01/24 09:08:16;;;;;;;39.53;19.62;;;;;;;2.88;74.81;102211.56;2165004;82;31421;-61
2022/01/24 09:11:17;;;;;;;34.88;19.57;;;;;;;2.97;74.84;102209.91;2164391;82;34112;-60
2022/01/24 09:14:19;;;;;;;37.42;18.90;;;;;;;3.07;74.87;102206.50;2164354;82;29685;-60
2022/01/24 09:17:21;;;;;;;39.15;20.20;;;;;;;3.14;74.67;102203.48;2191212;78;28056;-60
2022/01/24 09:20:23;;;;;;;36.93;20.40;;;;;;;3.25;74.45;102199.65;2261703;78;28850;-60
2022/01/24 09:23:25;;;;;;;35.05;18.80;;;;;;;3.30;74.42;102189.55;2251143;78;31410;-60
2022/01/24 09:26:30;;;;;;;37.58;20.75;;;;;;;3.44;74.53;102188.81;2264008;77;34291;-60
2022/01/24 09:29:33;;;;;;;36.28;20.45;;;;;;;3.53;74.55;102174.35;2221787;80;29701;-72
2022/01/24 09:32:35;;;;;;;35.33;16.87;;;;;;;3.65;74.35;102172.23;2249389;78;27722;-60
2022/01/24 09:35:37;;;;;;;37.55;16.90;;;;;;;3.69;73.66;102174.50;2250810;78;29643;-60
2022/01/24 09:38:39;;;;;;;36.50;18.80;;;;;;;3.67;73.17;102181.54;2237184;79;32380;-60
2022/01/24 09:41:41;;;;;;;38.85;22.30;;;;;;;3.63;73.56;102184.16;2217346;80;34143;-61
2022/01/24 09:44:46;;;;;;;35.10;18.82;;;;;;;3.67;73.54;102178.89;2208650;79;30672;-60
2022/01/24 09:47:48;;;;;;;38.23;23.90;;;;;;;3.68;73.17;102180.22;2193459;80;27728;-60
2022/01/24 09:50:52;;;;;;;55.75;31.37;;;;;;;3.72;73.58;102181.16;2158664;80;29272;-60
2022/01/24 09:53:55;;;;;;;48.13;26.37;;;;;;;3.79;73.45;102178.58;2217644;80;31880;-60
2022/01/24 09:56:57;;;;;;;46.60;27.65;;;;;;;3.80;73.19;102173.73;2216020;80;33148;-61
2022/01/24 09:59:59;;;;;;;43.98;22.98;;;;;;;3.86;73.32;102170.23;2216276;79;29725;-61
2022/01/24 10:03:02;;;;;;;53.42;27.65;;;;;;;3.92;73.18;102166.29;2217216;80;28171;-61
2022/01/24 10:06:04;;;;;;;66.28;32.65;;;;;;;3.96;73.07;102167.23;2217573;80;28648;-61
2022/01/24 10:09:09;;;;;;;52.83;25.92;;;;;;;4.06;73.26;102161.53;2217423;80;32183;-61
2022/01/24 10:19:22;;;;;;;32.05;18.17;;;;;;;4.33;72.78;102167.92;2178866;81;28189;-61
2022/01/24 10:22:25;;;;;;;64.07;30.88;;;;;;;4.40;72.54;102167.97;2198351;81;28484;-61
2022/01/24 10:25:28;;;;;;;46.63;24.32;;;;;;;4.41;72.95;102169.75;2201393;80;31056;-65
2022/01/24 10:28:38;;;;;;;40.52;18.73;;;;;;;4.50;72.82;102170.66;2240559;79;33439;-61
2022/01/24 10:31:48;;;;;;;38.05;21.95;;;;;;;4.56;72.79;102177.35;2240394;79;29545;-62
2022/01/24 10:34:50;;;;;;;36.17;19.50;;;;;;;4.58;72.57;102171.62;2239628;78;27649;-61
2022/01/24 10:38:26;;;;;;;42.10;20.43;;;;;;;4.60;72.41;102178.25;2237819;79;30123;-60
2022/01/24 10:41:28;;;;;;;45.25;20.10;;;;;;;4.61;72.39;102170.31;2216571;79;31097;-59
2022/01/24 10:44:33;;;;;;;35.43;18.00;;;;;;;4.53;72.03;102167.62;2237388;79;33120;-61
2022/01/24 10:47:43;;;;;;;38.65;18.73;;;;;;;4.53;72.11;102162.31;2203767;80;29376;-61
2022/01/24 10:50:40;;;;;;;43.05;23.02;;;;;;;4.59;72.19;102156.14;2178303;80;28263;-62
2022/01/24 10:53:55;;;;;;;36.13;18.73;;;;;;;4.70;72.34;102154.41;2197847;80;29266;-61
2022/01/24 10:56:56;;;;;;;37.08;18.45;;;;;;;4.82;72.20;102152.69;2208714;80;32389;-62
2022/01/24 11:00:06;;;;;;;32.95;17.55;;;;;;;4.83;71.58;102154.04;2220703;79;32973;-61
2022/01/24 11:03:17;;;;;;;39.40;18.87;;;;;;;4.79;71.68;102149.59;2178421;81;30172;-62
2022/01/24 11:06:29;;;;;;;37.40;18.80;;;;;;;4.75;71.25;102153.56;2217479;79;27688;-62
2022/01/24 11:09:37;;;;;;;37.63;20.40;;;;;;;4.68;71.86;102145.55;2215930;80;28649;-61
2022/01/24 11:12:39;;;;;;;35.05;17.35;;;;;;;4.73;71.99;102150.00;2238092;79;32217;-62
2022/01/24 11:15:48;;;;;;;36.42;18.12;;;;;;;4.63;71.34;102139.78;2217088;80;34147;-61
2022/01/24 11:18:46;;;;;;;36.40;17.90;;;;;;;4.54;71.26;102134.89;2237180;79;29329;-61
2022/01/24 11:21:51;;;;;;;40.30;19.17;;;;;;;4.51;71.54;102139.27;2178532;81;27688;-61
2022/01/24 11:25:06;;;;;;;30.32;17.15;;;;;;;4.47;71.26;102138.83;2203004;80;29502;-61
2022/01/24 11:28:02;;;;;;;40.65;20.65;;;;;;;4.35;71.26;102132.55;2238736;79;31826;-62
2022/01/24 11:31:16;;;;;;;48.20;24.70;;;;;;;4.28;71.28;102133.41;2202058;80;32967;-62
2022/01/24 11:34:30;;;;;;;41.35;24.72;;;;;;;4.24;71.56;102128.50;2164401;80;29395;-63
2022/01/24 11:37:46;;;;;;;90.10;56.98;;;;;;;4.21;71.50;102135.56;2197793;79;28348;-62
2022/01/24 11:40:48;;;;;;;168.50;93.67;;;;;;;4.22;71.73;102139.54;2210297;79;29193;-63
2022/01/24 11:44:00;;;;;;;72.17;46.50;;;;;;;4.31;72.06;102136.52;2172717;81;30883;-66
2022/01/24 11:47:01;;;;;;;43.48;26.40;;;;;;;4.39;71.88;102135.68;2204447;79;33378;-61
2022/01/24 11:50:37;;;;;;;45.08;26.82;;;;;;;4.46;71.77;102132.62;2217707;80;29333;-68
2022/01/24 11:53:44;;;;;;;51.48;28.10;;;;;;;4.48;71.54;102132.61;2217128;80;28196;-60
2022/01/24 11:56:46;;;;;;;43.80;24.57;;;;;;;4.49;71.35;102133.06;2188783;80;28656;-60
2022/01/24 11:59:51;;;;;;;48.17;25.80;;;;;;;4.50;71.38;102133.09;2179040;80;31604;-60
2022/01/24 12:03:01;;;;;;;36.95;18.07;;;;;;;4.55;71.47;102123.36;2237985;79;33391;-61
2022/01/24 12:06:14;;;;;;;39.85;24.07;;;;;;;4.57;70.78;102122.06;2203446;80;30164;-61
2022/01/24 12:09:10;;;;;;;84.67;45.35;;;;;;;4.53;70.91;102117.19;2202194;79;27721;-62
2022/01/24 12:12:47;;;;;;;45.40;26.82;;;;;;;4.56;70.87;102116.30;2196560;80;29883;-60
2022/01/24 12:16:06;;;;;;;34.03;19.95;;;;;;;4.59;70.94;102108.78;2223249;79;31214;-61
2022/01/24 12:19:10;;;;;;;39.58;22.35;;;;;;;4.59;70.76;102100.40;2184710;80;33353;-61
2022/01/24 12:22:38;;;;;;;44.70;26.62;;;;;;;4.63;70.93;102093.33;2236051;79;29340;-61
2022/01/24 12:26:15;;;;;;;46.63;25.43;;;;;;;4.64;70.81;102093.31;2198294;80;27663;-61
2022/01/24 12:29:21;;;;;;;62.70;33.88;;;;;;;4.65;70.85;102088.91;2183590;79;29981;-61
2022/01/24 12:32:24;;;;;;;63.42;33.75;;;;;;;4.68;70.83;102091.13;2210734;79;31064;-63
2022/01/24 12:35:28;;;;;;;44.83;22.22;;;;;;;4.74;70.72;102087.61;2211766;79;34212;-62
2022/01/24 12:38:44;;;;;;;40.95;23.38;;;;;;;4.78;70.82;102085.41;2248565;79;28888;-61
2022/01/24 12:42:00;;;;;;;43.98;25.48;;;;;;;4.77;70.52;102082.77;2248477;78;27675;-61
2022/01/24 12:48:35;;;;;;;39.08;22.75;;;;;;;4.79;70.73;102081.88;2224799;79;32232;-61
2022/01/24 12:51:37;;;;;;;48.70;26.70;;;;;;;4.80;70.79;102084.98;2225422;79;33009;-68
2022/01/24 12:54:44;;;;;;;61.50;31.80;;;;;;;4.82;70.48;102080.99;2223729;79;30193;-61
2022/01/24 12:57:46;;;;;;;43.68;24.43;;;;;;;4.78;70.59;102073.92;2246048;79;28231;-61
2022/01/24 13:00:49;;;;;;;56.45;31.10;;;;;;;4.77;70.46;102069.49;2225430;79;28871;-61
2022/01/24 13:04:02;;;;;;;74.70;45.52;;;;;;;4.72;70.69;102069.45;2225422;79;31859;-64
2022/01/24 13:07:07;;;;;;;56.13;32.10;;;;;;;4.70;70.57;102069.46;2249305;79;33063;-61
2022/01/24 13:10:15;;;;;;;43.85;22.77;;;;;;;4.70;70.63;102066.80;2246473;78;30149;-61
2022/01/24 13:13:19;;;;;;;106.00;66.02;;;;;;;4.68;70.84;102062.38;2205764;79;28331;-60
2022/01/24 13:23:12;;;;;;;86.90;50.38;;;;;;;4.57;70.64;102055.70;2186194;81;34315;-60
2022/01/24 13:26:14;;;;;;;54.55;27.65;;;;;;;4.57;70.90;102057.03;2215200;79;29305;-60
2022/01/24 13:29:18;;;;;;;49.38;27.07;;;;;;;4.58;70.77;102049.52;2198204;79;27706;-65
2022/01/24 13:32:42;;;;;;;67.82;34.85;;;;;;;4.64;70.86;102052.62;2206162;80;28544;-62
2022/01/24 13:35:51;;;;;;;110.20;58.78;;;;;;;4.64;70.74;102049.52;2245244;78;32384;-69
2022/01/24 13:38:53;;;;;;;65.20;34.88;;;;;;;4.66;70.81;102050.87;2241112;79;34102;-65
2022/01/24 13:41:55;;;;;;;72.37;37.08;;;;;;;4.65;70.82;102052.62;2243485;79;30014;-69
2022/01/24 13:44:57;;;;;;;57.15;31.30;;;;;;;4.64;70.75;102048.64;2244177;79;27695;-65
2022/01/24 13:48:02;;;;;;;55.38;32.28;;;;;;;4.63;70.86;102046.87;2228353;79;29879;-62
2022/01/24 13:51:03;;;;;;;46.63;27.20;;;;;;;4.60;70.87;102042.88;2180275;81;31012;-65
2022/01/24 13:54:09;;;;;;;48.87;28.40;;;;;;;4.59;70.97;102049.06;2202467;79;34231;-62
2022/01/24 13:57:19;;;;;;;42.00;25.57;;;;;;;4.58;70.88;102044.21;2202856;79;30495;-62
2022/01/24 14:00:26;;;;;;;52.80;28.17;;;;;;;4.53;70.92;102044.63;2197380;80;27697;-65
2022/01/24 14:03:28;;;;;;;57.80;28.73;;;;;;;4.49;71.05;102037.52;2215019;79;28711;-61
2022/01/24 14:06:36;;;;;;;59.27;29.85;;;;;;;4.46;71.09;102036.20;2245332;78;31346;-62
2022/01/24 14:09:45;;;;;;;53.60;28.60;;;;;;;4.42;71.02;102032.63;2244773;78;33128;-63
2022/01/24 14:12:54;;;;;;;51.08;28.20;;;;;;;4.36;71.15;102032.63;2243960;79;29331;-61
2022/01/24 14:16:08;;;;;;;53.20;28.27;;;;;;;4.31;71.17;102039.22;2245007;79;27811;-62
2022/01/24 14:19:03;;;;;;;51.77;28.17;;;;;;;4.27;71.03;102032.15;2243465;79;28631;-64
2022/01/24 14:22:10;;;;;;;50.17;27.25;;;;;;;4.23;71.27;102031.67;2239488;79;32361;-61
2022/01/24 14:25:21;;;;;;;50.60;27.20;;;;;;;4.20;71.30;102027.67;2237104;79;33992;-64
2022/01/24 14:28:26;;;;;;;50.23;30.75;;;;;;;4.15;71.32;102036.05;2125923;83;30498;-64
2022/01/24 14:31:28;;;;;;;;;;;;;;;4.11;71.31;102036.47;2117762;83;28521;-68
2022/01/24 14:34:30;;;;;;;69.05;42.30;;;;;;;4.05;71.44;102038.66;2108168;83;29083;-61
2022/01/24 14:37:50;;;;;;;58.98;31.20;;;;;;;4.00;71.61;102043.49;2098494;83;31980;-62
2022/01/24 14:40:54;;;;;;;57.98;29.82;;;;;;;3.97;71.64;102039.07;2101421;83;33418;-65
2022/01/24 14:47:18;;;;;;;54.18;29.80;;;;;;;3.90;71.79;102038.57;2105194;84;28377;-62
2022/01/24 14:50:21;;;;;;;59.63;31.62;;;;;;;3.86;71.85;102039.42;2106396;84;29626;-64
2022/01/24 14:53:28;;;;;;;51.37;30.50;;;;;;;3.83;71.95;102044.27;2100430;84;31921;-62
2022/01/24 14:56:27;;;;;;;76.47;41.35;;;;;;;3.81;72.00;102047.35;2102818;84;34436;-66
2022/01/24 14:59:31;;;;;;;60.28;32.58;;;;;;;3.77;72.09;102041.15;2104393;84;29325;-60
2022/01/24 15:02:33;;;;;;;50.10;29.35;;;;;;;3.75;72.26;102042.90;2105094;84;27719;-64
2022/01/24 15:05:35;;;;;;;58.55;31.62;;;;;;;3.76;72.29;102043.34;2165890;80;30001;-62
2022/01/24 15:08:40;;;;;;;64.42;34.25;;;;;;;3.72;72.06;102042.00;2221762;79;32268;-62
2022/01/24 15:11:43;;;;;;;103.10;62.83;;;;;;;3.65;72.11;102031.77;2232128;79;32987;-64
2022/01/24 15:14:46;;;;;;;61.95;34.90;;;;;;;3.61;72.21;102038.81;2219322;80;29390;-64
2022/01/24 15:24:39;;;;;;;65.22;34.67;;;;;;;3.46;72.35;102046.64;2046798;86;31323;-62
2022/01/24 15:27:38;;;;;;;65.17;34.50;;;;;;;3.44;72.52;102047.06;2042956;86;32746;-61
2022/01/24 15:30:40;;;;;;;60.90;32.87;;;;;;;3.38;72.56;102047.91;2034026;87;29369;-61
2022/01/24 15:33:42;;;;;;;65.62;35.28;;;;;;;3.39;72.69;102050.14;2010874;88;27776;-62
2022/01/24 15:36:44;;;;;;;64.72;34.03;;;;;;;3.37;72.76;102046.58;2045838;84;29891;-64
2022/01/24 15:39:46;;;;;;;58.52;34.50;;;;;;;3.33;72.71;102046.55;2084863;85;31976;-62
2022/01/24 15:43:01;;;;;;;67.62;37.48;;;;;;;3.30;72.76;102045.19;2084857;85;34333;-60
2022/01/24 15:46:32;;;;;;;60.90;34.30;;;;;;;3.27;72.91;102046.48;2083058;85;30526;-62
2022/01/24 15:49:05;;;;;;;89.20;45.70;;;;;;;3.27;73.10;102041.19;2058665;86;27745;-63
2022/01/24 15:52:08;;;;;;;91.42;48.42;;;;;;;3.26;73.18;102039.41;2058390;86;28838;-64
2022/01/24 15:55:16;;;;;;;73.62;37.60;;;;;;;3.23;73.05;102037.18;2058318;86;32223;-62
2022/01/24 15:58:18;;;;;;;61.13;34.18;;;;;;;3.20;73.22;102034.08;2062601;86;33181;-63
2022/01/24 16:01:19;;;;;;;65.87;37.65;;;;;;;3.19;73.34;102030.97;2211647;79;29487;-61
2022/01/24 16:04:21;;;;;;;78.05;41.42;;;;;;;3.20;73.33;102030.11;2262515;78;27617;-63
2022/01/24 16:07:23;;;;;;;76.42;40.80;;;;;;;3.17;73.35;102030.94;2253303;77;29984;-67
2022/01/24 16:10:28;;;;;;;80.70;40.65;;;;;;;3.17;73.41;102034.05;2250861;77;30902;-67